sensor_id;sensor_type;location;lat;lon;timestamp;P1;durP1;ratioP1;P2;durP2;ratioP2
48685;SDS011;34485;51.536;3.816;2023-02-07T00:00:05;22.03;;;9.37;;
48685;SDS011;34485;51.536;3.816;2023-02-07T00:02:43;27.67;;;9.50;;
48685;SDS011;34485;51.536;3.816;2023-02-07T00:05:10;26.55;;;10.35;;
48685;SDS011;34485;51.536;3.816;2023-02-07T00:07:36;31.20;;;11.27;;
48685;SDS011;34485;51.536;3.816;2023-02-07T00:10:03;29.33;;;10.18;;
48685;SDS011;34485;51.536;3.816;2023-02-07T00:12:29;15.23;;;10.02;;
48685;SDS011;34485;51.536;3.816;2023-02-07T00:14:55;18.92;;;9.70;;
48685;SDS011;34485;51.536;3.816;2023-02-07T00:17:21;262.60;;;15.57;;
48685;SDS011;34485;51.536;3.816;2023-02-07T00:19:46;35.65;;;11.38;;
48685;SDS011;34485;51.536;3.816;2023-02-07T00:22:12;84.20;;;11.50;;
48685;SDS011;34485;51.536;3.816;2023-02-07T00:24:37;72.80;;;10.33;;
48685;SDS011;34485;51.536;3.816;2023-02-07T00:27:03;18.20;;;9.18;;
48685;SDS011;34485;51.536;3.816;2023-02-07T00:29:29;29.03;;;8.57;;
48685;SDS011;34485;51.536;3.816;2023-02-07T00:31:56;240.23;;;16.75;;
48685;SDS011;34485;51.536;3.816;2023-02-07T00:34:22;241.55;;;17.50;;
48685;SDS011;34485;51.536;3.816;2023-02-07T00:36:48;136.30;;;15.60;;
48685;SDS011;34485;51.536;3.816;2023-02-07T00:39:14;131.07;;;13.23;;
48685;SDS011;34485;51.536;3.816;2023-02-07T00:41:41;264.63;;;16.00;;
48685;SDS011;34485;51.536;3.816;2023-02-07T00:44:07;90.97;;;8.50;;
48685;SDS011;34485;51.536;3.816;2023-02-07T00:46:33;157.98;;;10.63;;
48685;SDS011;34485;51.536;3.816;2023-02-07T00:48:59;99.85;;;11.82;;
48685;SDS011;34485;51.536;3.816;2023-02-07T00:51:25;276.35;;;13.63;;
48685;SDS011;34485;51.536;3.816;2023-02-07T00:53:52;260.60;;;16.77;;
48685;SDS011;34485;51.536;3.816;2023-02-07T00:56:18;267.92;;;16.23;;
48685;SDS011;34485;51.536;3.816;2023-02-07T00:58:45;144.00;;;14.13;;
48685;SDS011;34485;51.536;3.816;2023-02-07T01:01:11;90.67;;;7.30;;
48685;SDS011;34485;51.536;3.816;2023-02-07T01:03:37;106.43;;;6.63;;
48685;SDS011;34485;51.536;3.816;2023-02-07T01:06:03;150.95;;;9.65;;
48685;SDS011;34485;51.536;3.816;2023-02-07T01:08:29;139.50;;;10.50;;
48685;SDS011;34485;51.536;3.816;2023-02-07T01:10:55;322.50;;;17.42;;
48685;SDS011;34485;51.536;3.816;2023-02-07T01:13:21;198.68;;;12.05;;
48685;SDS011;34485;51.536;3.816;2023-02-07T01:15:47;100.37;;;9.73;;
48685;SDS011;34485;51.536;3.816;2023-02-07T01:18:13;52.53;;;8.10;;
48685;SDS011;34485;51.536;3.816;2023-02-07T01:20:40;39.38;;;7.88;;
48685;SDS011;34485;51.536;3.816;2023-02-07T01:23:06;30.27;;;7.57;;
48685;SDS011;34485;51.536;3.816;2023-02-07T01:25:32;124.50;;;12.27;;
48685;SDS011;34485;51.536;3.816;2023-02-07T01:27:58;102.80;;;9.65;;
48685;SDS011;34485;51.536;3.816;2023-02-07T01:30:23;32.70;;;8.70;;
48685;SDS011;34485;51.536;3.816;2023-02-07T01:32:49;30.73;;;8.98;;
48685;SDS011;34485;51.536;3.816;2023-02-07T01:35:14;24.53;;;10.23;;
48685;SDS011;34485;51.536;3.816;2023-02-07T01:37:40;37.08;;;8.73;;
48685;SDS011;34485;51.536;3.816;2023-02-07T01:40:06;25.17;;;7.63;;
48685;SDS011;34485;51.536;3.816;2023-02-07T01:42:32;25.77;;;9.65;;
48685;SDS011;34485;51.536;3.816;2023-02-07T01:45:07;26.40;;;7.00;;
48685;SDS011;34485;51.536;3.816;2023-02-07T01:47:54;18.83;;;7.18;;
48685;SDS011;34485;51.536;3.816;2023-02-07T01:50:23;19.10;;;6.22;;
48685;SDS011;34485;51.536;3.816;2023-02-07T01:52:49;28.48;;;7.22;;
48685;SDS011;34485;51.536;3.816;2023-02-07T01:55:18;32.47;;;7.80;;
48685;SDS011;34485;51.536;3.816;2023-02-07T01:57:48;35.65;;;7.65;;
48685;SDS011;34485;51.536;3.816;2023-02-07T02:00:14;42.65;;;8.43;;
48685;SDS011;34485;51.536;3.816;2023-02-07T02:02:41;28.20;;;7.63;;
48685;SDS011;34485;51.536;3.816;2023-02-07T02:05:08;27.85;;;7.00;;
48685;SDS011;34485;51.536;3.816;2023-02-07T02:07:34;28.30;;;7.10;;
48685;SDS011;34485;51.536;3.816;2023-02-07T02:10:01;20.48;;;6.68;;
48685;SDS011;34485;51.536;3.816;2023-02-07T02:23:19;28.20;;;7.65;;
48685;SDS011;34485;51.536;3.816;2023-02-07T02:35:12;47.45;;;10.35;;
48685;SDS011;34485;51.536;3.816;2023-02-07T02:38:09;35.38;;;8.98;;
48685;SDS011;34485;51.536;3.816;2023-02-07T02:40:50;36.40;;;10.50;;
48685;SDS011;34485;51.536;3.816;2023-02-07T02:46:00;57.15;;;11.30;;
48685;SDS011;34485;51.536;3.816;2023-02-07T02:48:32;49.60;;;12.00;;
48685;SDS011;34485;51.536;3.816;2023-02-07T02:50:59;40.92;;;11.43;;
48685;SDS011;34485;51.536;3.816;2023-02-07T02:53:26;37.78;;;11.13;;
48685;SDS011;34485;51.536;3.816;2023-02-07T03:04:26;39.75;;;13.50;;
48685;SDS011;34485;51.536;3.816;2023-02-07T03:12:54;58.75;;;13.68;;
48685;SDS011;34485;51.536;3.816;2023-02-07T03:17:58;43.65;;;14.00;;
48685;SDS011;34485;51.536;3.816;2023-02-07T03:20:44;44.63;;;13.88;;
48685;SDS011;34485;51.536;3.816;2023-02-07T03:23:16;62.30;;;15.65;;
48685;SDS011;34485;51.536;3.816;2023-02-07T03:25:43;51.38;;;15.68;;
48685;SDS011;34485;51.536;3.816;2023-02-07T03:28:10;63.17;;;15.05;;
48685;SDS011;34485;51.536;3.816;2023-02-07T03:30:38;42.28;;;14.32;;
48685;SDS011;34485;51.536;3.816;2023-02-07T03:33:07;54.10;;;15.18;;
48685;SDS011;34485;51.536;3.816;2023-02-07T03:38:32;59.63;;;17.55;;
48685;SDS011;34485;51.536;3.816;2023-02-07T03:40:59;54.88;;;16.23;;
48685;SDS011;34485;51.536;3.816;2023-02-07T03:43:31;52.85;;;15.98;;
48685;SDS011;34485;51.536;3.816;2023-02-07T03:45:58;60.10;;;19.00;;
48685;SDS011;34485;51.536;3.816;2023-02-07T03:48:24;55.50;;;17.60;;
48685;SDS011;34485;51.536;3.816;2023-02-07T03:50:50;56.47;;;18.13;;
48685;SDS011;34485;51.536;3.816;2023-02-07T03:53:17;56.20;;;18.67;;
48685;SDS011;34485;51.536;3.816;2023-02-07T03:55:43;62.05;;;18.83;;
48685;SDS011;34485;51.536;3.816;2023-02-07T03:58:09;42.60;;;16.57;;
48685;SDS011;34485;51.536;3.816;2023-02-07T04:00:34;42.90;;;17.20;;
48685;SDS011;34485;51.536;3.816;2023-02-07T04:03:01;52.63;;;16.17;;
48685;SDS011;34485;51.536;3.816;2023-02-07T04:05:27;40.28;;;16.40;;
48685;SDS011;34485;51.536;3.816;2023-02-07T04:07:52;44.05;;;17.27;;
48685;SDS011;34485;51.536;3.816;2023-02-07T04:10:18;56.40;;;17.17;;
48685;SDS011;34485;51.536;3.816;2023-02-07T04:12:44;52.17;;;17.20;;
48685;SDS011;34485;51.536;3.816;2023-02-07T04:15:10;43.97;;;16.33;;
48685;SDS011;34485;51.536;3.816;2023-02-07T04:17:36;53.60;;;19.00;;
48685;SDS011;34485;51.536;3.816;2023-02-07T04:20:02;57.60;;;17.55;;
48685;SDS011;34485;51.536;3.816;2023-02-07T04:22:29;64.30;;;17.67;;
48685;SDS011;34485;51.536;3.816;2023-02-07T04:24:54;38.72;;;16.08;;
48685;SDS011;34485;51.536;3.816;2023-02-07T04:27:20;46.20;;;14.93;;
48685;SDS011;34485;51.536;3.816;2023-02-07T04:29:46;54.60;;;15.35;;
48685;SDS011;34485;51.536;3.816;2023-02-07T04:32:11;50.23;;;16.03;;
48685;SDS011;34485;51.536;3.816;2023-02-07T04:34:37;47.13;;;15.07;;
48685;SDS011;34485;51.536;3.816;2023-02-07T04:37:02;46.80;;;14.60;;
48685;SDS011;34485;51.536;3.816;2023-02-07T04:39:28;62.37;;;16.70;;
48685;SDS011;34485;51.536;3.816;2023-02-07T04:41:54;51.08;;;15.77;;
48685;SDS011;34485;51.536;3.816;2023-02-07T04:44:19;53.47;;;16.43;;
48685;SDS011;34485;51.536;3.816;2023-02-07T04:46:45;45.72;;;15.40;;
48685;SDS011;34485;51.536;3.816;2023-02-07T04:49:10;46.03;;;15.10;;
48685;SDS011;34485;51.536;3.816;2023-02-07T04:51:36;35.47;;;16.53;;
48685;SDS011;34485;51.536;3.816;2023-02-07T04:54:02;54.30;;;15.57;;
48685;SDS011;34485;51.536;3.816;2023-02-07T04:56:28;67.00;;;15.85;;
48685;SDS011;34485;51.536;3.816;2023-02-07T04:58:53;63.80;;;17.07;;
48685;SDS011;34485;51.536;3.816;2023-02-07T05:01:19;91.63;;;16.17;;
48685;SDS011;34485;51.536;3.816;2023-02-07T05:03:45;118.27;;;16.17;;
48685;SDS011;34485;51.536;3.816;2023-02-07T05:06:11;54.47;;;17.38;;
48685;SDS011;34485;51.536;3.816;2023-02-07T05:08:37;47.38;;;16.20;;
48685;SDS011;34485;51.536;3.816;2023-02-07T05:11:03;51.60;;;17.20;;
48685;SDS011;34485;51.536;3.816;2023-02-07T05:13:29;68.53;;;20.60;;
48685;SDS011;34485;51.536;3.816;2023-02-07T05:15:55;65.38;;;18.77;;
48685;SDS011;34485;51.536;3.816;2023-02-07T05:18:21;65.73;;;19.03;;
48685;SDS011;34485;51.536;3.816;2023-02-07T05:20:47;66.38;;;22.95;;
48685;SDS011;34485;51.536;3.816;2023-02-07T05:23:12;84.60;;;22.90;;
48685;SDS011;34485;51.536;3.816;2023-02-07T05:25:40;76.65;;;23.58;;
48685;SDS011;34485;51.536;3.816;2023-02-07T05:28:06;101.22;;;24.63;;
48685;SDS011;34485;51.536;3.816;2023-02-07T05:30:31;74.93;;;22.23;;
48685;SDS011;34485;51.536;3.816;2023-02-07T05:32:57;97.17;;;22.00;;
48685;SDS011;34485;51.536;3.816;2023-02-07T05:35:32;107.13;;;23.77;;
48685;SDS011;34485;51.536;3.816;2023-02-07T05:38:03;75.03;;;23.27;;
48685;SDS011;34485;51.536;3.816;2023-02-07T05:40:31;73.15;;;21.92;;
48685;SDS011;34485;51.536;3.816;2023-02-07T05:43:00;77.63;;;23.92;;
48685;SDS011;34485;51.536;3.816;2023-02-07T05:45:26;77.95;;;24.42;;
48685;SDS011;34485;51.536;3.816;2023-02-07T05:47:52;92.68;;;26.50;;
48685;SDS011;34485;51.536;3.816;2023-02-07T05:50:18;81.43;;;25.73;;
48685;SDS011;34485;51.536;3.816;2023-02-07T05:52:43;87.82;;;23.73;;
48685;SDS011;34485;51.536;3.816;2023-02-07T05:55:09;102.93;;;25.57;;
48685;SDS011;34485;51.536;3.816;2023-02-07T05:57:37;217.88;;;30.15;;
48685;SDS011;34485;51.536;3.816;2023-02-07T06:00:06;251.43;;;27.15;;
48685;SDS011;34485;51.536;3.816;2023-02-07T06:02:34;203.82;;;26.80;;
48685;SDS011;34485;51.536;3.816;2023-02-07T06:04:59;468.10;;;38.10;;
48685;SDS011;34485;51.536;3.816;2023-02-07T06:07:25;358.77;;;32.75;;
48685;SDS011;34485;51.536;3.816;2023-02-07T06:09:51;549.27;;;37.67;;
48685;SDS011;34485;51.536;3.816;2023-02-07T06:12:16;399.50;;;35.80;;
48685;SDS011;34485;51.536;3.816;2023-02-07T06:14:42;243.25;;;28.00;;
48685;SDS011;34485;51.536;3.816;2023-02-07T06:17:07;255.80;;;28.40;;
48685;SDS011;34485;51.536;3.816;2023-02-07T06:19:33;219.68;;;29.65;;
48685;SDS011;34485;51.536;3.816;2023-02-07T06:21:59;334.70;;;32.80;;
48685;SDS011;34485;51.536;3.816;2023-02-07T06:24:24;373.00;;;33.43;;
48685;SDS011;34485;51.536;3.816;2023-02-07T06:26:50;478.20;;;37.75;;
48685;SDS011;34485;51.536;3.816;2023-02-07T06:29:15;477.77;;;29.47;;
48685;SDS011;34485;51.536;3.816;2023-02-07T06:31:41;451.95;;;31.58;;
48685;SDS011;34485;51.536;3.816;2023-02-07T06:34:07;376.37;;;30.17;;
48685;SDS011;34485;51.536;3.816;2023-02-07T06:36:32;307.70;;;28.33;;
48685;SDS011;34485;51.536;3.816;2023-02-07T06:38:58;257.05;;;30.27;;
48685;SDS011;34485;51.536;3.816;2023-02-07T06:41:23;367.50;;;31.80;;
48685;SDS011;34485;51.536;3.816;2023-02-07T06:43:49;315.63;;;25.02;;
48685;SDS011;34485;51.536;3.816;2023-02-07T06:46:15;277.80;;;24.67;;
48685;SDS011;34485;51.536;3.816;2023-02-07T06:48:41;262.85;;;28.10;;
48685;SDS011;34485;51.536;3.816;2023-02-07T06:51:06;230.27;;;25.87;;
48685;SDS011;34485;51.536;3.816;2023-02-07T06:53:32;251.30;;;31.30;;
48685;SDS011;34485;51.536;3.816;2023-02-07T06:55:57;352.23;;;29.20;;
48685;SDS011;34485;51.536;3.816;2023-02-07T06:58:23;369.23;;;31.83;;
48685;SDS011;34485;51.536;3.816;2023-02-07T07:00:49;297.88;;;27.40;;
48685;SDS011;34485;51.536;3.816;2023-02-07T07:03:15;145.80;;;23.37;;
48685;SDS011;34485;51.536;3.816;2023-02-07T07:05:42;143.88;;;24.70;;
48685;SDS011;34485;51.536;3.816;2023-02-07T07:08:08;68.50;;;21.73;;
48685;SDS011;34485;51.536;3.816;2023-02-07T07:10:35;173.85;;;26.67;;
48685;SDS011;34485;51.536;3.816;2023-02-07T07:13:00;236.80;;;25.47;;
48685;SDS011;34485;51.536;3.816;2023-02-07T07:15:26;70.63;;;23.05;;
48685;SDS011;34485;51.536;3.816;2023-02-07T07:17:52;89.27;;;23.27;;
48685;SDS011;34485;51.536;3.816;2023-02-07T07:22:53;70.00;;;20.87;;
48685;SDS011;34485;51.536;3.816;2023-02-07T07:25:18;130.15;;;24.02;;
48685;SDS011;34485;51.536;3.816;2023-02-07T07:27:44;79.30;;;19.93;;
48685;SDS011;34485;51.536;3.816;2023-02-07T07:30:10;58.35;;;21.98;;
48685;SDS011;34485;51.536;3.816;2023-02-07T07:32:36;63.00;;;21.70;;
48685;SDS011;34485;51.536;3.816;2023-02-07T07:35:02;49.78;;;20.70;;
48685;SDS011;34485;51.536;3.816;2023-02-07T07:37:29;72.55;;;21.80;;
48685;SDS011;34485;51.536;3.816;2023-02-07T07:39:54;49.28;;;21.02;;
48685;SDS011;34485;51.536;3.816;2023-02-07T07:42:20;52.70;;;20.63;;
48685;SDS011;34485;51.536;3.816;2023-02-07T07:44:46;158.90;;;26.93;;
48685;SDS011;34485;51.536;3.816;2023-02-07T07:47:11;111.07;;;24.83;;
48685;SDS011;34485;51.536;3.816;2023-02-07T07:49:37;89.45;;;25.98;;
48685;SDS011;34485;51.536;3.816;2023-02-07T07:52:04;67.87;;;24.23;;
48685;SDS011;34485;51.536;3.816;2023-02-07T07:54:30;67.38;;;25.80;;
48685;SDS011;34485;51.536;3.816;2023-02-07T07:56:55;78.20;;;28.77;;
48685;SDS011;34485;51.536;3.816;2023-02-07T07:59:21;79.07;;;27.70;;
48685;SDS011;34485;51.536;3.816;2023-02-07T08:01:46;85.77;;;26.97;;
48685;SDS011;34485;51.536;3.816;2023-02-07T08:04:12;81.75;;;27.88;;
48685;SDS011;34485;51.536;3.816;2023-02-07T08:06:37;81.37;;;30.20;;
48685;SDS011;34485;51.536;3.816;2023-02-07T08:09:03;79.60;;;28.85;;
48685;SDS011;34485;51.536;3.816;2023-02-07T08:11:29;82.23;;;29.60;;
48685;SDS011;34485;51.536;3.816;2023-02-07T08:13:54;88.80;;;30.50;;
48685;SDS011;34485;51.536;3.816;2023-02-07T08:16:20;86.00;;;31.95;;
48685;SDS011;34485;51.536;3.816;2023-02-07T08:18:45;85.20;;;32.47;;
48685;SDS011;34485;51.536;3.816;2023-02-07T08:21:11;87.90;;;34.45;;
48685;SDS011;34485;51.536;3.816;2023-02-07T08:23:37;85.07;;;36.43;;
48685;SDS011;34485;51.536;3.816;2023-02-07T08:26:03;76.45;;;30.45;;
48685;SDS011;34485;51.536;3.816;2023-02-07T08:28:29;65.47;;;29.23;;
48685;SDS011;34485;51.536;3.816;2023-02-07T08:31:02;55.75;;;26.08;;
48685;SDS011;34485;51.536;3.816;2023-02-07T08:33:29;54.70;;;25.65;;
48685;SDS011;34485;51.536;3.816;2023-02-07T08:35:55;43.05;;;21.48;;
48685;SDS011;34485;51.536;3.816;2023-02-07T08:38:22;53.15;;;22.85;;
48685;SDS011;34485;51.536;3.816;2023-02-07T08:40:48;35.57;;;18.90;;
48685;SDS011;34485;51.536;3.816;2023-02-07T08:43:15;34.38;;;18.42;;
48685;SDS011;34485;51.536;3.816;2023-02-07T08:45:42;31.87;;;16.83;;
48685;SDS011;34485;51.536;3.816;2023-02-07T08:48:11;28.80;;;15.40;;
48685;SDS011;34485;51.536;3.816;2023-02-07T08:50:36;26.83;;;15.00;;
48685;SDS011;34485;51.536;3.816;2023-02-07T08:53:02;27.50;;;16.07;;
48685;SDS011;34485;51.536;3.816;2023-02-07T08:55:28;33.17;;;14.93;;
48685;SDS011;34485;51.536;3.816;2023-02-07T08:57:54;29.20;;;14.80;;
48685;SDS011;34485;51.536;3.816;2023-02-07T09:00:20;30.53;;;14.17;;
48685;SDS011;34485;51.536;3.816;2023-02-07T09:02:46;32.17;;;14.95;;
48685;SDS011;34485;51.536;3.816;2023-02-07T09:05:11;30.27;;;15.63;;
48685;SDS011;34485;51.536;3.816;2023-02-07T09:07:37;28.10;;;15.93;;
48685;SDS011;34485;51.536;3.816;2023-02-07T09:10:03;29.07;;;14.97;;
48685;SDS011;34485;51.536;3.816;2023-02-07T09:12:31;26.13;;;15.68;;
48685;SDS011;34485;51.536;3.816;2023-02-07T09:14:57;30.27;;;14.73;;
48685;SDS011;34485;51.536;3.816;2023-02-07T09:17:22;31.53;;;15.43;;
48685;SDS011;34485;51.536;3.816;2023-02-07T09:19:48;27.23;;;15.33;;
48685;SDS011;34485;51.536;3.816;2023-02-07T09:22:14;31.95;;;16.38;;
48685;SDS011;34485;51.536;3.816;2023-02-07T09:24:39;36.50;;;16.17;;
48685;SDS011;34485;51.536;3.816;2023-02-07T09:27:05;30.92;;;15.98;;
48685;SDS011;34485;51.536;3.816;2023-02-07T09:29:31;30.70;;;16.53;;
48685;SDS011;34485;51.536;3.816;2023-02-07T09:31:57;34.65;;;16.90;;
48685;SDS011;34485;51.536;3.816;2023-02-07T09:34:22;27.10;;;16.27;;
48685;SDS011;34485;51.536;3.816;2023-02-07T09:36:48;32.60;;;16.83;;
48685;SDS011;34485;51.536;3.816;2023-02-07T09:39:15;26.80;;;15.52;;
48685;SDS011;34485;51.536;3.816;2023-02-07T09:52:24;31.35;;;17.52;;
48685;SDS011;34485;51.536;3.816;2023-02-07T09:54:57;31.92;;;16.08;;
48685;SDS011;34485;51.536;3.816;2023-02-07T09:57:28;32.17;;;16.43;;
48685;SDS011;34485;51.536;3.816;2023-02-07T10:02:48;34.00;;;16.58;;
48685;SDS011;34485;51.536;3.816;2023-02-07T10:05:19;25.73;;;15.68;;
48685;SDS011;34485;51.536;3.816;2023-02-07T10:07:49;31.10;;;16.38;;
48685;SDS011;34485;51.536;3.816;2023-02-07T10:10:23;26.50;;;15.00;;
48685;SDS011;34485;51.536;3.816;2023-02-07T10:18:25;27.88;;;16.33;;
48685;SDS011;34485;51.536;3.816;2023-02-07T10:21:08;29.90;;;15.90;;
48685;SDS011;34485;51.536;3.816;2023-02-07T10:24:12;29.60;;;16.03;;
48685;SDS011;34485;51.536;3.816;2023-02-07T10:26:51;26.88;;;15.32;;
48685;SDS011;34485;51.536;3.816;2023-02-07T10:32:00;26.13;;;16.05;;
48685;SDS011;34485;51.536;3.816;2023-02-07T10:34:35;34.63;;;16.85;;
48685;SDS011;34485;51.536;3.816;2023-02-07T10:37:11;43.33;;;14.67;;
48685;SDS011;34485;51.536;3.816;2023-02-07T10:39:50;28.80;;;14.13;;
48685;SDS011;34485;51.536;3.816;2023-02-07T10:42:37;27.67;;;16.90;;
48685;SDS011;34485;51.536;3.816;2023-02-07T10:45:05;29.50;;;16.35;;
48685;SDS011;34485;51.536;3.816;2023-02-07T10:47:32;33.17;;;16.67;;
48685;SDS011;34485;51.536;3.816;2023-02-07T10:50:05;30.33;;;16.23;;
48685;SDS011;34485;51.536;3.816;2023-02-07T10:52:43;35.33;;;16.55;;
48685;SDS011;34485;51.536;3.816;2023-02-07T10:55:16;37.40;;;18.02;;
48685;SDS011;34485;51.536;3.816;2023-02-07T10:57:53;29.00;;;14.90;;
48685;SDS011;34485;51.536;3.816;2023-02-07T11:00:26;50.55;;;16.48;;
48685;SDS011;34485;51.536;3.816;2023-02-07T11:02:53;58.17;;;19.00;;
48685;SDS011;34485;51.536;3.816;2023-02-07T11:05:54;36.90;;;17.58;;
48685;SDS011;34485;51.536;3.816;2023-02-07T11:08:22;40.38;;;18.98;;
48685;SDS011;34485;51.536;3.816;2023-02-07T11:10:49;44.88;;;19.88;;
48685;SDS011;34485;51.536;3.816;2023-02-07T11:13:17;47.20;;;18.60;;
48685;SDS011;34485;51.536;3.816;2023-02-07T11:15:55;41.43;;;19.40;;
48685;SDS011;34485;51.536;3.816;2023-02-07T11:20:53;43.97;;;20.95;;
48685;SDS011;34485;51.536;3.816;2023-02-07T11:23:20;48.70;;;22.02;;
48685;SDS011;34485;51.536;3.816;2023-02-07T11:25:47;45.40;;;22.40;;
48685;SDS011;34485;51.536;3.816;2023-02-07T11:28:20;48.72;;;19.70;;
48685;SDS011;34485;51.536;3.816;2023-02-07T11:31:00;57.42;;;20.50;;
48685;SDS011;34485;51.536;3.816;2023-02-07T11:33:30;47.28;;;21.98;;
48685;SDS011;34485;51.536;3.816;2023-02-07T11:38:48;50.80;;;20.52;;
48685;SDS011;34485;51.536;3.816;2023-02-07T11:41:17;41.47;;;19.35;;
48685;SDS011;34485;51.536;3.816;2023-02-07T11:43:59;54.67;;;23.38;;
48685;SDS011;34485;51.536;3.816;2023-02-07T11:46:33;71.00;;;22.00;;
48685;SDS011;34485;51.536;3.816;2023-02-07T11:49:01;54.90;;;21.58;;
48685;SDS011;34485;51.536;3.816;2023-02-07T11:51:28;80.38;;;23.20;;
48685;SDS011;34485;51.536;3.816;2023-02-07T11:53:58;45.00;;;23.02;;
48685;SDS011;34485;51.536;3.816;2023-02-07T11:58:55;53.00;;;25.45;;
48685;SDS011;34485;51.536;3.816;2023-02-07T12:01:32;50.65;;;24.83;;
48685;SDS011;34485;51.536;3.816;2023-02-07T12:03:59;51.08;;;25.38;;
48685;SDS011;34485;51.536;3.816;2023-02-07T12:06:42;53.28;;;24.33;;
48685;SDS011;34485;51.536;3.816;2023-02-07T12:09:28;54.38;;;24.38;;
48685;SDS011;34485;51.536;3.816;2023-02-07T12:11:59;66.32;;;26.58;;
48685;SDS011;34485;51.536;3.816;2023-02-07T12:14:32;59.08;;;26.70;;
48685;SDS011;34485;51.536;3.816;2023-02-07T12:17:04;133.45;;;29.00;;
48685;SDS011;34485;51.536;3.816;2023-02-07T12:19:38;48.88;;;24.65;;
48685;SDS011;34485;51.536;3.816;2023-02-07T12:22:30;58.00;;;26.88;;
48685;SDS011;34485;51.536;3.816;2023-02-07T12:25:08;58.83;;;26.35;;
48685;SDS011;34485;51.536;3.816;2023-02-07T12:27:44;68.22;;;30.02;;
48685;SDS011;34485;51.536;3.816;2023-02-07T12:38:23;68.22;;;26.25;;
48685;SDS011;34485;51.536;3.816;2023-02-07T12:41:11;53.63;;;24.92;;
48685;SDS011;34485;51.536;3.816;2023-02-07T12:58:27;48.33;;;24.58;;
48685;SDS011;34485;51.536;3.816;2023-02-07T13:09:17;58.63;;;23.80;;
48685;SDS011;34485;51.536;3.816;2023-02-07T13:12:07;85.88;;;24.23;;
48685;SDS011;34485;51.536;3.816;2023-02-07T13:22:45;46.88;;;21.75;;
48685;SDS011;34485;51.536;3.816;2023-02-07T13:25:14;56.42;;;24.83;;
48685;SDS011;34485;51.536;3.816;2023-02-07T13:27:41;47.78;;;22.73;;
48685;SDS011;34485;51.536;3.816;2023-02-07T13:30:12;53.67;;;23.20;;
48685;SDS011;34485;51.536;3.816;2023-02-07T13:32:39;51.70;;;24.77;;
48685;SDS011;34485;51.536;3.816;2023-02-07T13:35:06;47.03;;;20.95;;
48685;SDS011;34485;51.536;3.816;2023-02-07T13:37:50;42.47;;;21.63;;
48685;SDS011;34485;51.536;3.816;2023-02-07T13:40:32;58.55;;;24.73;;
48685;SDS011;34485;51.536;3.816;2023-02-07T13:43:13;48.38;;;22.67;;
48685;SDS011;34485;51.536;3.816;2023-02-07T13:51:42;38.30;;;18.30;;
48685;SDS011;34485;51.536;3.816;2023-02-07T13:54:30;47.03;;;23.30;;
48685;SDS011;34485;51.536;3.816;2023-02-07T13:57:12;45.67;;;20.10;;
48685;SDS011;34485;51.536;3.816;2023-02-07T14:02:39;58.58;;;25.35;;
48685;SDS011;34485;51.536;3.816;2023-02-07T14:05:21;40.90;;;19.05;;
48685;SDS011;34485;51.536;3.816;2023-02-07T14:07:59;46.95;;;22.85;;
48685;SDS011;34485;51.536;3.816;2023-02-07T14:10:48;50.53;;;21.80;;
48685;SDS011;34485;51.536;3.816;2023-02-07T14:13:23;44.63;;;21.55;;
48685;SDS011;34485;51.536;3.816;2023-02-07T14:16:10;41.03;;;21.13;;
48685;SDS011;34485;51.536;3.816;2023-02-07T14:18:43;44.40;;;21.25;;
48685;SDS011;34485;51.536;3.816;2023-02-07T14:34:30;34.63;;;19.05;;
48685;SDS011;34485;51.536;3.816;2023-02-07T14:37:20;31.80;;;17.05;;
48685;SDS011;34485;51.536;3.816;2023-02-07T14:40:05;29.17;;;17.00;;
48685;SDS011;34485;51.536;3.816;2023-02-07T14:42:32;35.70;;;17.88;;
48685;SDS011;34485;51.536;3.816;2023-02-07T14:44:58;27.63;;;16.33;;
48685;SDS011;34485;51.536;3.816;2023-02-07T14:47:24;31.70;;;17.92;;
48685;SDS011;34485;51.536;3.816;2023-02-07T14:49:53;30.35;;;18.42;;
48685;SDS011;34485;51.536;3.816;2023-02-07T14:52:23;34.05;;;17.17;;
48685;SDS011;34485;51.536;3.816;2023-02-07T14:54:53;27.80;;;15.20;;
48685;SDS011;34485;51.536;3.816;2023-02-07T14:57:35;34.40;;;17.70;;
48685;SDS011;34485;51.536;3.816;2023-02-07T15:00:24;36.42;;;20.13;;
48685;SDS011;34485;51.536;3.816;2023-02-07T15:03:00;32.85;;;19.33;;
48685;SDS011;34485;51.536;3.816;2023-02-07T15:05:30;36.13;;;19.52;;
48685;SDS011;34485;51.536;3.816;2023-02-07T15:10:33;47.57;;;21.93;;
48685;SDS011;34485;51.536;3.816;2023-02-07T15:13:00;38.38;;;19.30;;
48685;SDS011;34485;51.536;3.816;2023-02-07T15:15:28;45.80;;;22.33;;
48685;SDS011;34485;51.536;3.816;2023-02-07T15:18:16;46.75;;;22.15;;
48685;SDS011;34485;51.536;3.816;2023-02-07T15:20:43;39.45;;;21.80;;
48685;SDS011;34485;51.536;3.816;2023-02-07T15:23:14;42.90;;;21.10;;
48685;SDS011;34485;51.536;3.816;2023-02-07T15:25:40;38.10;;;19.95;;
48685;SDS011;34485;51.536;3.816;2023-02-07T15:28:24;48.75;;;22.23;;
48685;SDS011;34485;51.536;3.816;2023-02-07T15:31:02;43.05;;;20.00;;
48685;SDS011;34485;51.536;3.816;2023-02-07T15:39:26;39.08;;;21.88;;
48685;SDS011;34485;51.536;3.816;2023-02-07T15:41:52;54.65;;;23.25;;
48685;SDS011;34485;51.536;3.816;2023-02-07T15:52:12;44.72;;;22.40;;
48685;SDS011;34485;51.536;3.816;2023-02-07T15:54:56;45.22;;;23.92;;
48685;SDS011;34485;51.536;3.816;2023-02-07T15:57:29;42.22;;;22.27;;
48685;SDS011;34485;51.536;3.816;2023-02-07T16:00:17;42.92;;;21.13;;
48685;SDS011;34485;51.536;3.816;2023-02-07T16:02:55;40.38;;;20.73;;
48685;SDS011;34485;51.536;3.816;2023-02-07T16:05:23;44.40;;;21.25;;
48685;SDS011;34485;51.536;3.816;2023-02-07T16:07:55;43.25;;;21.67;;
48685;SDS011;34485;51.536;3.816;2023-02-07T16:12:50;38.50;;;19.63;;
48685;SDS011;34485;51.536;3.816;2023-02-07T16:17:51;35.88;;;20.90;;
48685;SDS011;34485;51.536;3.816;2023-02-07T16:20:18;36.27;;;18.93;;
48685;SDS011;34485;51.536;3.816;2023-02-07T16:22:44;34.38;;;18.08;;
48685;SDS011;34485;51.536;3.816;2023-02-07T16:25:15;36.63;;;18.80;;
48685;SDS011;34485;51.536;3.816;2023-02-07T16:27:46;37.75;;;19.60;;
48685;SDS011;34485;51.536;3.816;2023-02-07T16:30:16;34.75;;;19.05;;
48685;SDS011;34485;51.536;3.816;2023-02-07T16:32:48;36.92;;;19.63;;
48685;SDS011;34485;51.536;3.816;2023-02-07T16:35:18;46.08;;;20.48;;
48685;SDS011;34485;51.536;3.816;2023-02-07T16:37:49;37.63;;;18.05;;
48685;SDS011;34485;51.536;3.816;2023-02-07T16:40:15;39.70;;;19.63;;
48685;SDS011;34485;51.536;3.816;2023-02-07T16:42:41;34.30;;;17.63;;
48685;SDS011;34485;51.536;3.816;2023-02-07T16:45:15;36.40;;;18.83;;
48685;SDS011;34485;51.536;3.816;2023-02-07T16:47:48;36.33;;;19.83;;
48685;SDS011;34485;51.536;3.816;2023-02-07T16:52:47;41.90;;;19.23;;
48685;SDS011;34485;51.536;3.816;2023-02-07T16:55:15;38.85;;;19.70;;
48685;SDS011;34485;51.536;3.816;2023-02-07T16:57:42;44.78;;;21.23;;
48685;SDS011;34485;51.536;3.816;2023-02-07T17:00:11;41.20;;;20.45;;
48685;SDS011;34485;51.536;3.816;2023-02-07T17:02:43;36.88;;;19.25;;
48685;SDS011;34485;51.536;3.816;2023-02-07T17:05:12;35.83;;;18.65;;
48685;SDS011;34485;51.536;3.816;2023-02-07T17:07:38;33.80;;;17.92;;
48685;SDS011;34485;51.536;3.816;2023-02-07T17:10:26;33.13;;;18.20;;
48685;SDS011;34485;51.536;3.816;2023-02-07T17:12:52;35.85;;;17.55;;